sensor_id;sensor_type;location;lat;lon;timestamp;P1;P2;P0
55043;PMS5003;54902;50.420;18.854;2023-04-03T00:00:00;9;9;7
55043;PMS5003;54902;50.420;18.854;2023-04-03T00:00:31;9;9;7
55043;PMS5003;54902;50.420;18.854;2023-04-03T00:01:03;9;9;7
55043;PMS5003;54902;50.420;18.854;2023-04-03T00:01:35;9;9;7
55043;PMS5003;54902;50.420;18.854;2023-04-03T00:02:08;9;9;7
55043;PMS5003;54902;50.420;18.854;2023-04-03T00:02:39;8;7;5
55043;PMS5003;54902;50.420;18.854;2023-04-03T00:03:11;8;7;5
55043;PMS5003;54902;50.420;18.854;2023-04-03T00:03:42;8;7;5
55043;PMS5003;54902;50.420;18.854;2023-04-03T00:04:13;8;7;4
55043;PMS5003;54902;50.420;18.854;2023-04-03T00:04:44;8;7;4
55043;PMS5003;54902;50.420;18.854;2023-04-03T00:05:15;8;7;4
55043;PMS5003;54902;50.420;18.854;2023-04-03T00:05:46;8;7;4
55043;PMS5003;54902;50.420;18.854;2023-04-03T00:06:17;8;7;4
55043;PMS5003;54902;50.420;18.854;2023-04-03T00:06:48;8;7;4
55043;PMS5003;54902;50.420;18.854;2023-04-03T00:07:19;8;7;4
55043;PMS5003;54902;50.420;18.854;2023-04-03T00:07:50;8;7;4
55043;PMS5003;54902;50.420;18.854;2023-04-03T00:08:21;8;7;4
55043;PMS5003;54902;50.420;18.854;2023-04-03T00:08:52;8;7;4
55043;PMS5003;54902;50.420;18.854;2023-04-03T00:09:23;12;10;6
55043;PMS5003;54902;50.420;18.854;2023-04-03T00:09:55;12;10;6
55043;PMS5003;54902;50.420;18.854;2023-04-03T00:10:26;12;10;6
55043;PMS5003;54902;50.420;18.854;2023-04-03T00:10:57;12;10;6
55043;PMS5003;54902;50.420;18.854;2023-04-03T00:11:27;12;10;6
55043;PMS5003;54902;50.420;18.854;2023-04-03T00:11:58;12;10;6
55043;PMS5003;54902;50.420;18.854;2023-04-03T00:12:30;12;10;6
55043;PMS5003;54902;50.420;18.854;2023-04-03T00:13:02;12;10;6
55043;PMS5003;54902;50.420;18.854;2023-04-03T00:13:33;12;10;6
55043;PMS5003;54902;50.420;18.854;2023-04-03T00:14:04;12;10;6
55043;PMS5003;54902;50.420;18.854;2023-04-03T00:14:35;12;10;6
55043;PMS5003;54902;50.420;18.854;2023-04-03T00:15:06;9;9;6
55043;PMS5003;54902;50.420;18.854;2023-04-03T00:15:38;9;9;6
55043;PMS5003;54902;50.420;18.854;2023-04-03T00:16:10;9;9;6
55043;PMS5003;54902;50.420;18.854;2023-04-03T00:16:42;9;9;6
55043;PMS5003;54902;50.420;18.854;2023-04-03T00:17:13;9;9;6
55043;PMS5003;54902;50.420;18.854;2023-04-03T00:17:44;9;9;6
55043;PMS5003;54902;50.420;18.854;2023-04-03T00:18:15;9;9;6
55043;PMS5003;54902;50.420;18.854;2023-04-03T00:18:46;9;9;6
55043;PMS5003;54902;50.420;18.854;2023-04-03T00:19:17;9;9;6
55043;PMS5003;54902;50.420;18.854;2023-04-03T00:19:48;15;15;10
55043;PMS5003;54902;50.420;18.854;2023-04-03T00:20:19;15;15;10
55043;PMS5003;54902;50.420;18.854;2023-04-03T00:20:51;15;15;10
55043;PMS5003;54902;50.420;18.854;2023-04-03T00:21:22;15;15;10
55043;PMS5003;54902;50.420;18.854;2023-04-03T00:21:53;15;15;10
55043;PMS5003;54902;50.420;18.854;2023-04-03T00:22:23;15;15;10
55043;PMS5003;54902;50.420;18.854;2023-04-03T00:22:58;15;15;10
55043;PMS5003;54902;50.420;18.854;2023-04-03T00:23:30;15;15;10
55043;PMS5003;54902;50.420;18.854;2023-04-03T00:24:01;14;14;9
55043;PMS5003;54902;50.420;18.854;2023-04-03T00:24:32;14;14;9
55043;PMS5003;54902;50.420;18.854;2023-04-03T00:25:03;14;14;8
55043;PMS5003;54902;50.420;18.854;2023-04-03T00:25:35;14;14;8
55043;PMS5003;54902;50.420;18.854;2023-04-03T00:26:06;14;14;8
55043;PMS5003;54902;50.420;18.854;2023-04-03T00:26:37;14;14;8
55043;PMS5003;54902;50.420;18.854;2023-04-03T00:27:08;14;14;8
55043;PMS5003;54902;50.420;18.854;2023-04-03T00:27:39;14;14;8
55043;PMS5003;54902;50.420;18.854;2023-04-03T00:28:11;14;14;8
55043;PMS5003;54902;50.420;18.854;2023-04-03T00:28:42;14;14;8
55043;PMS5003;54902;50.420;18.854;2023-04-03T00:29:13;14;14;8
55043;PMS5003;54902;50.420;18.854;2023-04-03T00:29:44;14;14;8
55043;PMS5003;54902;50.420;18.854;2023-04-03T00:30:16;19;19;12
55043;PMS5003;54902;50.420;18.854;2023-04-03T00:30:49;19;19;12
55043;PMS5003;54902;50.420;18.854;2023-04-03T00:31:20;19;19;12
55043;PMS5003;54902;50.420;18.854;2023-04-03T00:31:51;19;19;12
55043;PMS5003;54902;50.420;18.854;2023-04-03T00:32:22;19;19;12
55043;PMS5003;54902;50.420;18.854;2023-04-03T00:32:53;19;19;12
55043;PMS5003;54902;50.420;18.854;2023-04-03T00:33:24;19;19;12
55043;PMS5003;54902;50.420;18.854;2023-04-03T00:33:55;19;19;12
55043;PMS5003;54902;50.420;18.854;2023-04-03T00:34:26;19;19;12
55043;PMS5003;54902;50.420;18.854;2023-04-03T00:34:57;19;19;12
55043;PMS5003;54902;50.420;18.854;2023-04-03T00:35:28;19;19;12
55043;PMS5003;54902;50.420;18.854;2023-04-03T00:36:04;19;19;12
55043;PMS5003;54902;50.420;18.854;2023-04-03T00:36:37;19;19;12
55043;PMS5003;54902;50.420;18.854;2023-04-03T00:37:07;9;9;6
55043;PMS5003;54902;50.420;18.854;2023-04-03T00:37:38;9;9;6
55043;PMS5003;54902;50.420;18.854;2023-04-03T00:38:10;9;9;6
55043;PMS5003;54902;50.420;18.854;2023-04-03T00:38:41;9;9;6
55043;PMS5003;54902;50.420;18.854;2023-04-03T00:39:12;9;9;6
55043;PMS5003;54902;50.420;18.854;2023-04-03T00:39:43;9;9;6
55043;PMS5003;54902;50.420;18.854;2023-04-03T00:40:14;9;9;6
55043;PMS5003;54902;50.420;18.854;2023-04-03T00:40:47;8;8;6
55043;PMS5003;54902;50.420;18.854;2023-04-03T00:41:19;8;8;6
55043;PMS5003;54902;50.420;18.854;2023-04-03T00:41:51;8;8;6
55043;PMS5003;54902;50.420;18.854;2023-04-03T00:42:22;8;8;6
55043;PMS5003;54902;50.420;18.854;2023-04-03T00:42:57;8;8;6
55043;PMS5003;54902;50.420;18.854;2023-04-03T00:43:30;8;8;6
55043;PMS5003;54902;50.420;18.854;2023-04-03T00:44:16;8;8;6
55043;PMS5003;54902;50.420;18.854;2023-04-03T00:45:31;8;8;6
55043;PMS5003;54902;50.420;18.854;2023-04-03T00:46:05;8;8;6
55043;PMS5003;54902;50.420;18.854;2023-04-03T00:46:36;9;9;7
55043;PMS5003;54902;50.420;18.854;2023-04-03T00:47:07;9;9;7
55043;PMS5003;54902;50.420;18.854;2023-04-03T00:47:41;9;9;7
55043;PMS5003;54902;50.420;18.854;2023-04-03T00:48:17;9;9;7
55043;PMS5003;54902;50.420;18.854;2023-04-03T00:48:51;9;9;7
55043;PMS5003;54902;50.420;18.854;2023-04-03T00:49:22;9;9;7
55043;PMS5003;54902;50.420;18.854;2023-04-03T00:49:53;9;9;7
55043;PMS5003;54902;50.420;18.854;2023-04-03T00:50:24;9;9;7
55043;PMS5003;54902;50.420;18.854;2023-04-03T00:50:57;9;9;7
55043;PMS5003;54902;50.420;18.854;2023-04-03T00:51:29;9;9;7
55043;PMS5003;54902;50.420;18.854;2023-04-03T00:52:00;9;9;7
55043;PMS5003;54902;50.420;18.854;2023-04-03T00:52:32;8;8;6
55043;PMS5003;54902;50.420;18.854;2023-04-03T00:53:03;8;8;6
55043;PMS5003;54902;50.420;18.854;2023-04-03T00:53:38;8;8;6
55043;PMS5003;54902;50.420;18.854;2023-04-03T00:54:12;8;8;6
55043;PMS5003;54902;50.420;18.854;2023-04-03T00:54:43;8;8;6
55043;PMS5003;54902;50.420;18.854;2023-04-03T00:55:16;8;8;6
55043;PMS5003;54902;50.420;18.854;2023-04-03T00:55:47;8;8;6
55043;PMS5003;54902;50.420;18.854;2023-04-03T00:56:21;8;8;6
55043;PMS5003;54902;50.420;18.854;2023-04-03T00:56:54;8;8;6
55043;PMS5003;54902;50.420;18.854;2023-04-03T00:57:27;16;16;12
55043;PMS5003;54902;50.420;18.854;2023-04-03T00:58:00;16;16;12
55043;PMS5003;54902;50.420;18.854;2023-04-03T00:58:34;16;16;12
55043;PMS5003;54902;50.420;18.854;2023-04-03T00:59:15;16;16;12
55043;PMS5003;54902;50.420;18.854;2023-04-03T00:59:56;16;16;12
55043;PMS5003;54902;50.420;18.854;2023-04-03T01:00:31;16;16;12
55043;PMS5003;54902;50.420;18.854;2023-04-03T01:01:03;12;12;8
55043;PMS5003;54902;50.420;18.854;2023-04-03T01:01:38;12;12;8
55043;PMS5003;54902;50.420;18.854;2023-04-03T01:02:09;12;12;8
55043;PMS5003;54902;50.420;18.854;2023-04-03T01:02:41;12;12;8
55043;PMS5003;54902;50.420;18.854;2023-04-03T01:03:12;12;12;6
55043;PMS5003;54902;50.420;18.854;2023-04-03T01:03:43;12;12;6
55043;PMS5003;54902;50.420;18.854;2023-04-03T01:04:58;12;12;6
55043;PMS5003;54902;50.420;18.854;2023-04-03T01:05:29;12;12;6
55043;PMS5003;54902;50.420;18.854;2023-04-03T01:06:00;12;12;6
55043;PMS5003;54902;50.420;18.854;2023-04-03T01:06:32;11;11;7
55043;PMS5003;54902;50.420;18.854;2023-04-03T01:07:07;11;11;7
55043;PMS5003;54902;50.420;18.854;2023-04-03T01:07:46;11;11;7
55043;PMS5003;54902;50.420;18.854;2023-04-03T01:08:19;11;11;7
55043;PMS5003;54902;50.420;18.854;2023-04-03T01:08:50;13;12;9
55043;PMS5003;54902;50.420;18.854;2023-04-03T01:09:21;13;12;9
55043;PMS5003;54902;50.420;18.854;2023-04-03T01:09:54;10;9;6
55043;PMS5003;54902;50.420;18.854;2023-04-03T01:10:28;10;9;6
55043;PMS5003;54902;50.420;18.854;2023-04-03T01:10:59;10;9;6
55043;PMS5003;54902;50.420;18.854;2023-04-03T01:11:32;10;9;6
55043;PMS5003;54902;50.420;18.854;2023-04-03T01:12:48;10;9;6
55043;PMS5003;54902;50.420;18.854;2023-04-03T01:13:27;10;9;6
55043;PMS5003;54902;50.420;18.854;2023-04-03T01:14:00;10;9;6
55043;PMS5003;54902;50.420;18.854;2023-04-03T01:14:32;12;12;8
55043;PMS5003;54902;50.420;18.854;2023-04-03T01:15:07;12;12;8
55043;PMS5003;54902;50.420;18.854;2023-04-03T01:15:43;12;12;8
55043;PMS5003;54902;50.420;18.854;2023-04-03T01:16:15;12;12;8
55043;PMS5003;54902;50.420;18.854;2023-04-03T01:17:26;12;12;8
55043;PMS5003;54902;50.420;18.854;2023-04-03T01:18:00;12;12;8
55043;PMS5003;54902;50.420;18.854;2023-04-03T01:18:31;12;12;8
55043;PMS5003;54902;50.420;18.854;2023-04-03T01:19:06;12;12;8
55043;PMS5003;54902;50.420;18.854;2023-04-03T01:19:41;12;12;8
55043;PMS5003;54902;50.420;18.854;2023-04-03T01:20:31;13;13;9
55043;PMS5003;54902;50.420;18.854;2023-04-03T01:22:02;13;13;9
55043;PMS5003;54902;50.420;18.854;2023-04-03T01:22:52;13;13;9
55043;PMS5003;54902;50.420;18.854;2023-04-03T01:23:40;13;13;9
55043;PMS5003;54902;50.420;18.854;2023-04-03T01:24:48;13;13;9
55043;PMS5003;54902;50.420;18.854;2023-04-03T01:25:23;13;13;9
55043;PMS5003;54902;50.420;18.854;2023-04-03T01:25:55;13;13;9
55043;PMS5003;54902;50.420;18.854;2023-04-03T01:26:27;13;13;9
55043;PMS5003;54902;50.420;18.854;2023-04-03T01:26:59;13;13;9
55043;PMS5003;54902;50.420;18.854;2023-04-03T01:27:33;13;13;9
55043;PMS5003;54902;50.420;18.854;2023-04-03T01:28:04;13;13;9
55043;PMS5003;54902;50.420;18.854;2023-04-03T01:28:37;13;13;9
55043;PMS5003;54902;50.420;18.854;2023-04-03T01:29:08;13;13;9
55043;PMS5003;54902;50.420;18.854;2023-04-03T01:29:41;13;13;9
55043;PMS5003;54902;50.420;18.854;2023-04-03T01:30:14;13;13;9
55043;PMS5003;54902;50.420;18.854;2023-04-03T01:30:50;13;13;9
55043;PMS5003;54902;50.420;18.854;2023-04-03T01:31:31;13;13;9
55043;PMS5003;54902;50.420;18.854;2023-04-03T01:32:10;12;12;8
55043;PMS5003;54902;50.420;18.854;2023-04-03T01:32:41;13;11;7
55043;PMS5003;54902;50.420;18.854;2023-04-03T01:33:12;13;11;7
55043;PMS5003;54902;50.420;18.854;2023-04-03T01:33:43;13;11;7
55043;PMS5003;54902;50.420;18.854;2023-04-03T01:34:15;13;11;7
55043;PMS5003;54902;50.420;18.854;2023-04-03T01:34:46;13;11;7
55043;PMS5003;54902;50.420;18.854;2023-04-03T01:35:16;13;11;7
55043;PMS5003;54902;50.420;18.854;2023-04-03T01:35:47;13;11;7
55043;PMS5003;54902;50.420;18.854;2023-04-03T01:36:20;13;11;7
55043;PMS5003;54902;50.420;18.854;2023-04-03T01:36:54;15;13;8
55043;PMS5003;54902;50.420;18.854;2023-04-03T01:37:25;15;13;8
55043;PMS5003;54902;50.420;18.854;2023-04-03T01:37:56;9;9;7
55043;PMS5003;54902;50.420;18.854;2023-04-03T01:38:27;9;9;7
55043;PMS5003;54902;50.420;18.854;2023-04-03T01:38:58;9;9;7
55043;PMS5003;54902;50.420;18.854;2023-04-03T01:39:30;9;9;7
55043;PMS5003;54902;50.420;18.854;2023-04-03T01:40:02;9;9;7
55043;PMS5003;54902;50.420;18.854;2023-04-03T01:40:33;9;9;7
55043;PMS5003;54902;50.420;18.854;2023-04-03T01:41:04;9;9;7
55043;PMS5003;54902;50.420;18.854;2023-04-03T01:41:35;9;9;7
55043;PMS5003;54902;50.420;18.854;2023-04-03T01:42:06;9;9;7
55043;PMS5003;54902;50.420;18.854;2023-04-03T01:42:37;9;9;7
55043;PMS5003;54902;50.420;18.854;2023-04-03T01:43:08;13;13;10
55043;PMS5003;54902;50.420;18.854;2023-04-03T01:43:39;13;13;10
55043;PMS5003;54902;50.420;18.854;2023-04-03T01:44:10;13;13;10
55043;PMS5003;54902;50.420;18.854;2023-04-03T01:44:42;13;13;10
55043;PMS5003;54902;50.420;18.854;2023-04-03T01:45:13;13;13;10
55043;PMS5003;54902;50.420;18.854;2023-04-03T01:45:45;13;13;10
55043;PMS5003;54902;50.420;18.854;2023-04-03T01:46:17;13;13;10
55043;PMS5003;54902;50.420;18.854;2023-04-03T01:46:49;13;13;10
55043;PMS5003;54902;50.420;18.854;2023-04-03T01:47:19;13;13;10
55043;PMS5003;54902;50.420;18.854;2023-04-03T01:47:51;13;13;10
55043;PMS5003;54902;50.420;18.854;2023-04-03T01:48:22;13;13;10
55043;PMS5003;54902;50.420;18.854;2023-04-03T01:48:53;13;13;10
55043;PMS5003;54902;50.420;18.854;2023-04-03T01:49:24;8;8;6
55043;PMS5003;54902;50.420;18.854;2023-04-03T01:49:55;8;8;6
55043;PMS5003;54902;50.420;18.854;2023-04-03T01:50:26;8;8;6
55043;PMS5003;54902;50.420;18.854;2023-04-03T01:50:57;8;8;6
55043;PMS5003;54902;50.420;18.854;2023-04-03T01:51:28;8;8;6
55043;PMS5003;54902;50.420;18.854;2023-04-03T01:51:59;8;8;6
55043;PMS5003;54902;50.420;18.854;2023-04-03T01:52:30;8;8;6
55043;PMS5003;54902;50.420;18.854;2023-04-03T01:53:01;8;8;6
55043;PMS5003;54902;50.420;18.854;2023-04-03T01:53:32;8;8;6
55043;PMS5003;54902;50.420;18.854;2023-04-03T01:54:03;8;8;6
55043;PMS5003;54902;50.420;18.854;2023-04-03T01:54:34;8;8;6
55043;PMS5003;54902;50.420;18.854;2023-04-03T01:55:05;8;8;6
55043;PMS5003;54902;50.420;18.854;2023-04-03T01:55:36;8;8;6
55043;PMS5003;54902;50.420;18.854;2023-04-03T01:56:07;8;8;6
55043;PMS5003;54902;50.420;18.854;2023-04-03T01:56:39;8;8;6
55043;PMS5003;54902;50.420;18.854;2023-04-03T01:57:10;8;8;6
55043;PMS5003;54902;50.420;18.854;2023-04-03T01:57:40;8;8;6
55043;PMS5003;54902;50.420;18.854;2023-04-03T01:58:11;8;8;6
55043;PMS5003;54902;50.420;18.854;2023-04-03T01:58:42;9;9;7
55043;PMS5003;54902;50.420;18.854;2023-04-03T01:59:13;9;9;7
55043;PMS5003;54902;50.420;18.854;2023-04-03T01:59:48;9;9;7
55043;PMS5003;54902;50.420;18.854;2023-04-03T02:00:19;9;9;7
55043;PMS5003;54902;50.420;18.854;2023-04-03T02:00:50;9;9;7
55043;PMS5003;54902;50.420;18.854;2023-04-03T02:01:22;9;9;7
55043;PMS5003;54902;50.420;18.854;2023-04-03T02:01:53;9;9;7
55043;PMS5003;54902;50.420;18.854;2023-04-03T02:02:24;9;9;7
55043;PMS5003;54902;50.420;18.854;2023-04-03T02:02:55;9;9;7
55043;PMS5003;54902;50.420;18.854;2023-04-03T02:03:27;9;9;7
55043;PMS5003;54902;50.420;18.854;2023-04-03T02:03:58;9;9;7
55043;PMS5003;54902;50.420;18.854;2023-04-03T02:04:28;9;9;7
55043;PMS5003;54902;50.420;18.854;2023-04-03T02:05:00;9;9;7
55043;PMS5003;54902;50.420;18.854;2023-04-03T02:05:31;9;9;7
55043;PMS5003;54902;50.420;18.854;2023-04-03T02:06:02;9;9;7
55043;PMS5003;54902;50.420;18.854;2023-04-03T02:06:33;9;9;7
55043;PMS5003;54902;50.420;18.854;2023-04-03T02:07:05;9;9;7
55043;PMS5003;54902;50.420;18.854;2023-04-03T02:07:37;9;9;7
55043;PMS5003;54902;50.420;18.854;2023-04-03T02:08:08;9;9;7
55043;PMS5003;54902;50.420;18.854;2023-04-03T02:08:38;9;9;7
55043;PMS5003;54902;50.420;18.854;2023-04-03T02:09:11;9;9;7
55043;PMS5003;54902;50.420;18.854;2023-04-03T02:09:42;9;9;7
55043;PMS5003;54902;50.420;18.854;2023-04-03T02:10:13;9;9;7
55043;PMS5003;54902;50.420;18.854;2023-04-03T02:10:46;9;9;7
55043;PMS5003;54902;50.420;18.854;2023-04-03T02:11:18;9;9;7
55043;PMS5003;54902;50.420;18.854;2023-04-03T02:11:50;9;9;7
55043;PMS5003;54902;50.420;18.854;2023-04-03T02:12:21;9;9;7
55043;PMS5003;54902;50.420;18.854;2023-04-03T02:12:52;9;9;7
55043;PMS5003;54902;50.420;18.854;2023-04-03T02:13:23;9;9;7
55043;PMS5003;54902;50.420;18.854;2023-04-03T02:13:54;9;9;7
55043;PMS5003;54902;50.420;18.854;2023-04-03T02:14:25;9;9;7
55043;PMS5003;54902;50.420;18.854;2023-04-03T02:14:57;6;6;5
55043;PMS5003;54902;50.420;18.854;2023-04-03T02:15:28;6;6;5
55043;PMS5003;54902;50.420;18.854;2023-04-03T02:16:05;6;6;5
55043;PMS5003;54902;50.420;18.854;2023-04-03T02:16:40;6;6;5
55043;PMS5003;54902;50.420;18.854;2023-04-03T02:17:11;6;6;5
55043;PMS5003;54902;50.420;18.854;2023-04-03T02:17:42;6;6;5
55043;PMS5003;54902;50.420;18.854;2023-04-03T02:18:13;6;6;5
55043;PMS5003;54902;50.420;18.854;2023-04-03T02:18:44;6;6;5
55043;PMS5003;54902;50.420;18.854;2023-04-03T02:19:15;6;6;5
55043;PMS5003;54902;50.420;18.854;2023-04-03T02:19:46;10;10;7
55043;PMS5003;54902;50.420;18.854;2023-04-03T02:20:18;10;10;7
55043;PMS5003;54902;50.420;18.854;2023-04-03T02:20:49;10;10;7
55043;PMS5003;54902;50.420;18.854;2023-04-03T02:21:20;10;10;7
55043;PMS5003;54902;50.420;18.854;2023-04-03T02:21:51;10;10;7
55043;PMS5003;54902;50.420;18.854;2023-04-03T02:22:22;10;10;7
55043;PMS5003;54902;50.420;18.854;2023-04-03T02:22:53;10;10;7
55043;PMS5003;54902;50.420;18.854;2023-04-03T02:23:24;10;10;7
55043;PMS5003;54902;50.420;18.854;2023-04-03T02:23:55;10;10;7
55043;PMS5003;54902;50.420;18.854;2023-04-03T02:24:26;10;10;7
55043;PMS5003;54902;50.420;18.854;2023-04-03T02:24:57;10;10;7
55043;PMS5003;54902;50.420;18.854;2023-04-03T02:25:30;10;10;7
55043;PMS5003;54902;50.420;18.854;2023-04-03T02:26:09;10;10;7
55043;PMS5003;54902;50.420;18.854;2023-04-03T02:26:42;10;10;7
55043;PMS5003;54902;50.420;18.854;2023-04-03T02:27:13;10;10;7
55043;PMS5003;54902;50.420;18.854;2023-04-03T02:27:44;10;10;7
55043;PMS5003;54902;50.420;18.854;2023-04-03T02:28:15;10;10;7
55043;PMS5003;54902;50.420;18.854;2023-04-03T02:28:46;10;10;7
55043;PMS5003;54902;50.420;18.854;2023-04-03T02:29:17;10;10;7
55043;PMS5003;54902;50.420;18.854;2023-04-03T02:29:48;10;10;7
55043;PMS5003;54902;50.420;18.854;2023-04-03T02:30:19;10;10;7
55043;PMS5003;54902;50.420;18.854;2023-04-03T02:30:50;10;10;7
55043;PMS5003;54902;50.420;18.854;2023-04-03T02:31:21;10;10;7
55043;PMS5003;54902;50.420;18.854;2023-04-03T02:31:52;10;10;7
55043;PMS5003;54902;50.420;18.854;2023-04-03T02:32:23;10;10;7
55043;PMS5003;54902;50.420;18.854;2023-04-03T02:32:54;10;10;7
55043;PMS5003;54902;50.420;18.854;2023-04-03T02:33:26;10;10;7
55043;PMS5003;54902;50.420;18.854;2023-04-03T02:33:57;10;10;7
55043;PMS5003;54902;50.420;18.854;2023-04-03T02:34:28;10;10;7
55043;PMS5003;54902;50.420;18.854;2023-04-03T02:34:58;10;10;7
55043;PMS5003;54902;50.420;18.854;2023-04-03T02:35:29;10;10;7
55043;PMS5003;54902;50.420;18.854;2023-04-03T02:36:00;10;10;7
55043;PMS5003;54902;50.420;18.854;2023-04-03T02:36:31;10;10;7
55043;PMS5003;54902;50.420;18.854;2023-04-03T02:37:02;10;10;7
55043;PMS5003;54902;50.420;18.854;2023-04-03T02:37:33;10;10;7
55043;PMS5003;54902;50.420;18.854;2023-04-03T02:38:05;7;7;5
55043;PMS5003;54902;50.420;18.854;2023-04-03T02:38:36;7;7;5
55043;PMS5003;54902;50.420;18.854;2023-04-03T02:39:07;7;7;5
55043;PMS5003;54902;50.420;18.854;2023-04-03T02:39:38;7;7;5
55043;PMS5003;54902;50.420;18.854;2023-04-03T02:40:09;7;7;5
55043;PMS5003;54902;50.420;18.854;2023-04-03T02:40:41;7;7;6
55043;PMS5003;54902;50.420;18.854;2023-04-03T02:41:12;7;7;6
55043;PMS5003;54902;50.420;18.854;2023-04-03T02:41:43;7;7;6
55043;PMS5003;54902;50.420;18.854;2023-04-03T02:42:15;7;7;6
55043;PMS5003;54902;50.420;18.854;2023-04-03T02:42:46;7;7;6
55043;PMS5003;54902;50.420;18.854;2023-04-03T02:43:17;6;6;4
55043;PMS5003;54902;50.420;18.854;2023-04-03T02:43:48;6;6;4
55043;PMS5003;54902;50.420;18.854;2023-04-03T02:44:19;6;6;4
55043;PMS5003;54902;50.420;18.854;2023-04-03T02:44:50;6;6;4
55043;PMS5003;54902;50.420;18.854;2023-04-03T02:45:21;6;6;4
55043;PMS5003;54902;50.420;18.854;2023-04-03T02:45:52;6;6;3
55043;PMS5003;54902;50.420;18.854;2023-04-03T02:46:23;6;6;3
55043;PMS5003;54902;50.420;18.854;2023-04-03T02:46:54;6;6;3
55043;PMS5003;54902;50.420;18.854;2023-04-03T02:47:25;6;6;3
55043;PMS5003;54902;50.420;18.854;2023-04-03T02:47:56;6;6;3
55043;PMS5003;54902;50.420;18.854;2023-04-03T02:48:27;6;6;3
55043;PMS5003;54902;50.420;18.854;2023-04-03T02:48:58;6;6;3
55043;PMS5003;54902;50.420;18.854;2023-04-03T02:49:30;6;6;3
55043;PMS5003;54902;50.420;18.854;2023-04-03T02:50:00;6;6;3
55043;PMS5003;54902;50.420;18.854;2023-04-03T02:50:31;6;6;3
55043;PMS5003;54902;50.420;18.854;2023-04-03T02:51:02;7;7;4
55043;PMS5003;54902;50.420;18.854;2023-04-03T02:51:33;7;7;4
55043;PMS5003;54902;50.420;18.854;2023-04-03T02:52:04;7;7;4
55043;PMS5003;54902;50.420;18.854;2023-04-03T02:52:35;7;7;4
55043;PMS5003;54902;50.420;18.854;2023-04-03T02:53:06;7;7;4
55043;PMS5003;54902;50.420;18.854;2023-04-03T02:53:37;7;7;4
55043;PMS5003;54902;50.420;18.854;2023-04-03T02:54:08;5;5;3
55043;PMS5003;54902;50.420;18.854;2023-04-03T02:54:39;5;5;3
55043;PMS5003;54902;50.420;18.854;2023-04-03T02:55:13;5;5;3
55043;PMS5003;54902;50.420;18.854;2023-04-03T02:55:46;5;5;3
55043;PMS5003;54902;50.420;18.854;2023-04-03T02:56:17;7;7;4
55043;PMS5003;54902;50.420;18.854;2023-04-03T02:56:50;7;7;4
55043;PMS5003;54902;50.420;18.854;2023-04-03T02:57:21;7;7;4
55043;PMS5003;54902;50.420;18.854;2023-04-03T02:57:52;3;3;2
55043;PMS5003;54902;50.420;18.854;2023-04-03T02:58:23;3;3;2
55043;PMS5003;54902;50.420;18.854;2023-04-03T02:58:54;3;3;2
55043;PMS5003;54902;50.420;18.854;2023-04-03T02:59:25;3;3;2
55043;PMS5003;54902;50.420;18.854;2023-04-03T02:59:56;3;3;2
55043;PMS5003;54902;50.420;18.854;2023-04-03T03:00:27;3;3;2
55043;PMS5003;54902;50.420;18.854;2023-04-03T03:00:58;3;3;2
55043;PMS5003;54902;50.420;18.854;2023-04-03T03:01:29;2;2;2
55043;PMS5003;54902;50.420;18.854;2023-04-03T03:02:02;2;2;2
55043;PMS5003;54902;50.420;18.854;2023-04-03T03:02:33;2;2;2
55043;PMS5003;54902;50.420;18.854;2023-04-03T03:03:04;2;2;2
55043;PMS5003;54902;50.420;18.854;2023-04-03T03:03:36;2;2;2
55043;PMS5003;54902;50.420;18.854;2023-04-03T03:04:07;2;2;2
55043;PMS5003;54902;50.420;18.854;2023-04-03T03:04:38;2;2;2
55043;PMS5003;54902;50.420;18.854;2023-04-03T03:05:09;2;2;2
55043;PMS5003;54902;50.420;18.854;2023-04-03T03:05:40;2;2;2
55043;PMS5003;54902;50.420;18.854;2023-04-03T03:06:13;2;2;2
55043;PMS5003;54902;50.420;18.854;2023-04-03T03:06:46;5;5;3
55043;PMS5003;54902;50.420;18.854;2023-04-03T03:07:17;5;5;3
55043;PMS5003;54902;50.420;18.854;2023-04-03T03:07:48;5;5;3
55043;PMS5003;54902;50.420;18.854;2023-04-03T03:08:19;5;5;3
55043;PMS5003;54902;50.420;18.854;2023-04-03T03:08:50;5;5;3
55043;PMS5003;54902;50.420;18.854;2023-04-03T03:09:21;5;5;3
55043;PMS5003;54902;50.420;18.854;2023-04-03T03:09:52;5;5;3
55043;PMS5003;54902;50.420;18.854;2023-04-03T03:10:23;5;5;3
55043;PMS5003;54902;50.420;18.854;2023-04-03T03:10:55;5;5;3
55043;PMS5003;54902;50.420;18.854;2023-04-03T03:11:26;5;5;3
55043;PMS5003;54902;50.420;18.854;2023-04-03T03:11:57;6;6;4
55043;PMS5003;54902;50.420;18.854;2023-04-03T03:12:28;6;6;4
55043;PMS5003;54902;50.420;18.854;2023-04-03T03:12:58;6;6;4
55043;PMS5003;54902;50.420;18.854;2023-04-03T03:13:31;6;6;4
55043;PMS5003;54902;50.420;18.854;2023-04-03T03:14:02;6;6;4
55043;PMS5003;54902;50.420;18.854;2023-04-03T03:14:33;6;6;4
55043;PMS5003;54902;50.420;18.854;2023-04-03T03:15:04;6;6;4
55043;PMS5003;54902;50.420;18.854;2023-04-03T03:15:35;6;6;4
55043;PMS5003;54902;50.420;18.854;2023-04-03T03:16:06;6;6;4
55043;PMS5003;54902;50.420;18.854;2023-04-03T03:16:38;6;6;4
55043;PMS5003;54902;50.420;18.854;2023-04-03T03:17:09;6;6;4
55043;PMS5003;54902;50.420;18.854;2023-04-03T03:17:39;6;6;4
55043;PMS5003;54902;50.420;18.854;2023-04-03T03:18:10;6;6;4
55043;PMS5003;54902;50.420;18.854;2023-04-03T03:18:41;6;6;4
55043;PMS5003;54902;50.420;18.854;2023-04-03T03:19:12;6;6;4
55043;PMS5003;54902;50.420;18.854;2023-04-03T03:19:43;6;6;4
55043;PMS5003;54902;50.420;18.854;2023-04-03T03:20:16;5;5;4
55043;PMS5003;54902;50.420;18.854;2023-04-03T03:20:50;5;5;4
55043;PMS5003;54902;50.420;18.854;2023-04-03T03:21:23;5;5;4
55043;PMS5003;54902;50.420;18.854;2023-04-03T03:21:54;5;5;4
55043;PMS5003;54902;50.420;18.854;2023-04-03T03:22:27;5;5;3
55043;PMS5003;54902;50.420;18.854;2023-04-03T03:22:58;5;5;3
55043;PMS5003;54902;50.420;18.854;2023-04-03T03:23:30;3;3;2
55043;PMS5003;54902;50.420;18.854;2023-04-03T03:24:02;3;3;2
55043;PMS5003;54902;50.420;18.854;2023-04-03T03:24:33;3;3;2
55043;PMS5003;54902;50.420;18.854;2023-04-03T03:25:05;3;3;2
55043;PMS5003;54902;50.420;18.854;2023-04-03T03:25:39;3;3;2
55043;PMS5003;54902;50.420;18.854;2023-04-03T03:26:11;3;3;2
55043;PMS5003;54902;50.420;18.854;2023-04-03T03:26:42;3;3;2
55043;PMS5003;54902;50.420;18.854;2023-04-03T03:27:13;3;3;2
55043;PMS5003;54902;50.420;18.854;2023-04-03T03:27:46;2;2;2
55043;PMS5003;54902;50.420;18.854;2023-04-03T03:28:17;2;2;2
55043;PMS5003;54902;50.420;18.854;2023-04-03T03:28:48;2;2;2
55043;PMS5003;54902;50.420;18.854;2023-04-03T03:29:18;2;2;2
55043;PMS5003;54902;50.420;18.854;2023-04-03T03:29:50;2;2;2
55043;PMS5003;54902;50.420;18.854;2023-04-03T03:30:21;2;2;2
55043;PMS5003;54902;50.420;18.854;2023-04-03T03:30:52;2;2;2
55043;PMS5003;54902;50.420;18.854;2023-04-03T03:31:23;2;2;2
55043;PMS5003;54902;50.420;18.854;2023-04-03T03:31:54;2;2;2
55043;PMS5003;54902;50.420;18.854;2023-04-03T03:32:25;3;3;3
55043;PMS5003;54902;50.420;18.854;2023-04-03T03:32:56;6;6;4